sensor_id;sensor_type;location;lat;lon;timestamp;temperature;humidity
30983;DHT22;17660;52.578;13.288;2023-04-01T00:01:00;11.10;99.90
30983;DHT22;17660;52.578;13.288;2023-04-01T00:03:27;11.10;99.90
30983;DHT22;17660;52.578;13.288;2023-04-01T00:05:55;11.10;99.90
30983;DHT22;17660;52.578;13.288;2023-04-01T00:08:22;11.10;99.90
30983;DHT22;17660;52.578;13.288;2023-04-01T00:10:48;11.10;99.90
30983;DHT22;17660;52.578;13.288;2023-04-01T00:13:15;11.10;99.90
30983;DHT22;17660;52.578;13.288;2023-04-01T00:15:42;11.10;99.90
30983;DHT22;17660;52.578;13.288;2023-04-01T00:18:09;11.10;99.90
30983;DHT22;17660;52.578;13.288;2023-04-01T00:20:36;11.10;99.90
30983;DHT22;17660;52.578;13.288;2023-04-01T00:23:02;11.10;99.90
30983;DHT22;17660;52.578;13.288;2023-04-01T00:25:29;11.20;99.90
30983;DHT22;17660;52.578;13.288;2023-04-01T00:27:56;11.20;99.90
30983;DHT22;17660;52.578;13.288;2023-04-01T00:30:23;11.20;99.90
30983;DHT22;17660;52.578;13.288;2023-04-01T00:32:53;11.10;99.90
30983;DHT22;17660;52.578;13.288;2023-04-01T00:35:20;11.10;99.90
30983;DHT22;17660;52.578;13.288;2023-04-01T00:37:46;11.00;99.90
30983;DHT22;17660;52.578;13.288;2023-04-01T00:40:28;11.00;99.90
30983;DHT22;17660;52.578;13.288;2023-04-01T00:42:55;11.00;99.90
30983;DHT22;17660;52.578;13.288;2023-04-01T00:45:35;11.00;99.90
30983;DHT22;17660;52.578;13.288;2023-04-01T00:48:07;11.00;99.90
30983;DHT22;17660;52.578;13.288;2023-04-01T00:50:35;11.00;99.90
30983;DHT22;17660;52.578;13.288;2023-04-01T00:53:03;11.00;99.90
30983;DHT22;17660;52.578;13.288;2023-04-01T00:55:32;11.00;99.90
30983;DHT22;17660;52.578;13.288;2023-04-01T00:57:59;11.00;99.90
30983;DHT22;17660;52.578;13.288;2023-04-01T01:00:28;11.00;99.90
30983;DHT22;17660;52.578;13.288;2023-04-01T01:02:54;11.00;99.90
30983;DHT22;17660;52.578;13.288;2023-04-01T01:05:23;11.00;99.90
30983;DHT22;17660;52.578;13.288;2023-04-01T01:08:03;11.00;99.90
30983;DHT22;17660;52.578;13.288;2023-04-01T01:10:36;11.00;99.90
30983;DHT22;17660;52.578;13.288;2023-04-01T01:31:50;10.90;99.90
30983;DHT22;17660;52.578;13.288;2023-04-01T01:36:48;10.90;99.90
30983;DHT22;17660;52.578;13.288;2023-04-01T01:39:17;11.00;99.90
30983;DHT22;17660;52.578;13.288;2023-04-01T01:41:44;10.90;99.90
30983;DHT22;17660;52.578;13.288;2023-04-01T01:44:15;11.00;99.90
30983;DHT22;17660;52.578;13.288;2023-04-01T01:46:42;11.00;99.90
30983;DHT22;17660;52.578;13.288;2023-04-01T01:49:10;11.00;99.90
30983;DHT22;17660;52.578;13.288;2023-04-01T01:51:38;11.00;99.90
30983;DHT22;17660;52.578;13.288;2023-04-01T01:54:05;11.00;99.90
30983;DHT22;17660;52.578;13.288;2023-04-01T01:56:32;10.90;99.90
30983;DHT22;17660;52.578;13.288;2023-04-01T01:59:00;10.90;99.90
30983;DHT22;17660;52.578;13.288;2023-04-01T02:01:31;10.80;99.90
30983;DHT22;17660;52.578;13.288;2023-04-01T02:03:59;10.80;99.90
30983;DHT22;17660;52.578;13.288;2023-04-01T02:06:27;10.80;99.90
30983;DHT22;17660;52.578;13.288;2023-04-01T02:08:55;10.70;99.90
30983;DHT22;17660;52.578;13.288;2023-04-01T02:11:25;10.70;99.90
30983;DHT22;17660;52.578;13.288;2023-04-01T02:13:54;10.70;99.90
30983;DHT22;17660;52.578;13.288;2023-04-01T02:16:24;10.80;99.90
30983;DHT22;17660;52.578;13.288;2023-04-01T02:18:52;10.90;99.90
30983;DHT22;17660;52.578;13.288;2023-04-01T02:21:20;10.90;99.90
30983;DHT22;17660;52.578;13.288;2023-04-01T02:23:48;10.90;99.90
30983;DHT22;17660;52.578;13.288;2023-04-01T02:26:15;10.90;99.90
30983;DHT22;17660;52.578;13.288;2023-04-01T02:28:42;10.80;99.90
30983;DHT22;17660;52.578;13.288;2023-04-01T02:31:09;10.80;99.90
30983;DHT22;17660;52.578;13.288;2023-04-01T02:33:38;10.80;99.90
30983;DHT22;17660;52.578;13.288;2023-04-01T02:36:05;10.90;99.90
30983;DHT22;17660;52.578;13.288;2023-04-01T02:38:31;10.80;99.90
30983;DHT22;17660;52.578;13.288;2023-04-01T02:41:01;10.90;99.90
30983;DHT22;17660;52.578;13.288;2023-04-01T02:43:29;10.90;99.90
30983;DHT22;17660;52.578;13.288;2023-04-01T02:45:55;10.90;99.90
30983;DHT22;17660;52.578;13.288;2023-04-01T02:48:22;10.90;99.90
30983;DHT22;17660;52.578;13.288;2023-04-01T02:50:49;10.90;99.90
30983;DHT22;17660;52.578;13.288;2023-04-01T02:53:16;10.90;99.90
30983;DHT22;17660;52.578;13.288;2023-04-01T02:55:42;10.90;99.90
30983;DHT22;17660;52.578;13.288;2023-04-01T02:58:09;11.00;99.90
30983;DHT22;17660;52.578;13.288;2023-04-01T03:00:36;11.00;99.90
30983;DHT22;17660;52.578;13.288;2023-04-01T03:03:03;11.00;99.90
30983;DHT22;17660;52.578;13.288;2023-04-01T03:05:30;11.00;99.90
30983;DHT22;17660;52.578;13.288;2023-04-01T03:07:57;11.00;99.90
30983;DHT22;17660;52.578;13.288;2023-04-01T03:10:24;11.00;99.90
30983;DHT22;17660;52.578;13.288;2023-04-01T03:12:51;11.00;99.90
30983;DHT22;17660;52.578;13.288;2023-04-01T03:15:17;11.00;99.90
30983;DHT22;17660;52.578;13.288;2023-04-01T03:17:44;11.00;99.90
30983;DHT22;17660;52.578;13.288;2023-04-01T03:20:13;10.90;99.90
30983;DHT22;17660;52.578;13.288;2023-04-01T03:22:40;10.90;99.90
30983;DHT22;17660;52.578;13.288;2023-04-01T03:25:08;10.90;99.90
30983;DHT22;17660;52.578;13.288;2023-04-01T03:27:36;10.90;99.90
30983;DHT22;17660;52.578;13.288;2023-04-01T03:30:03;10.90;99.90
30983;DHT22;17660;52.578;13.288;2023-04-01T03:32:30;11.00;99.90
30983;DHT22;17660;52.578;13.288;2023-04-01T03:34:56;11.00;99.90
30983;DHT22;17660;52.578;13.288;2023-04-01T03:37:23;11.00;99.90
30983;DHT22;17660;52.578;13.288;2023-04-01T03:39:50;11.00;99.90
30983;DHT22;17660;52.578;13.288;2023-04-01T03:42:17;11.00;99.90
30983;DHT22;17660;52.578;13.288;2023-04-01T03:44:44;11.00;99.90
30983;DHT22;17660;52.578;13.288;2023-04-01T03:47:10;11.00;99.90
30983;DHT22;17660;52.578;13.288;2023-04-01T03:49:37;11.00;99.90
30983;DHT22;17660;52.578;13.288;2023-04-01T03:52:04;11.00;99.90
30983;DHT22;17660;52.578;13.288;2023-04-01T03:54:30;11.00;99.90
30983;DHT22;17660;52.578;13.288;2023-04-01T03:56:58;11.00;99.90
30983;DHT22;17660;52.578;13.288;2023-04-01T03:59:25;11.00;99.90
30983;DHT22;17660;52.578;13.288;2023-04-01T04:01:52;11.00;99.90
30983;DHT22;17660;52.578;13.288;2023-04-01T04:04:19;11.00;99.90
30983;DHT22;17660;52.578;13.288;2023-04-01T04:06:45;11.00;99.90
30983;DHT22;17660;52.578;13.288;2023-04-01T04:09:12;11.00;99.90
30983;DHT22;17660;52.578;13.288;2023-04-01T04:11:38;11.10;99.90
30983;DHT22;17660;52.578;13.288;2023-04-01T04:14:05;11.00;99.90
30983;DHT22;17660;52.578;13.288;2023-04-01T04:16:34;11.00;99.90
30983;DHT22;17660;52.578;13.288;2023-04-01T04:19:00;11.00;99.90
30983;DHT22;17660;52.578;13.288;2023-04-01T04:21:27;11.00;99.90
30983;DHT22;17660;52.578;13.288;2023-04-01T04:23:53;11.00;99.90
30983;DHT22;17660;52.578;13.288;2023-04-01T04:26:20;11.00;99.90
30983;DHT22;17660;52.578;13.288;2023-04-01T04:28:47;11.00;99.90
30983;DHT22;17660;52.578;13.288;2023-04-01T04:31:21;11.00;99.90
30983;DHT22;17660;52.578;13.288;2023-04-01T04:33:48;11.00;99.90
30983;DHT22;17660;52.578;13.288;2023-04-01T04:36:15;11.00;99.90
30983;DHT22;17660;52.578;13.288;2023-04-01T04:38:41;11.00;99.90
30983;DHT22;17660;52.578;13.288;2023-04-01T04:41:11;11.00;99.90
30983;DHT22;17660;52.578;13.288;2023-04-01T04:43:39;11.00;99.90
30983;DHT22;17660;52.578;13.288;2023-04-01T04:46:06;11.00;99.90
30983;DHT22;17660;52.578;13.288;2023-04-01T04:48:33;11.00;99.90
30983;DHT22;17660;52.578;13.288;2023-04-01T04:51:00;11.00;99.90
30983;DHT22;17660;52.578;13.288;2023-04-01T04:53:27;11.00;99.90
30983;DHT22;17660;52.578;13.288;2023-04-01T04:55:54;11.10;99.90
30983;DHT22;17660;52.578;13.288;2023-04-01T04:58:21;11.00;99.90
30983;DHT22;17660;52.578;13.288;2023-04-01T05:00:47;11.00;99.90
30983;DHT22;17660;52.578;13.288;2023-04-01T05:03:14;11.00;99.90
30983;DHT22;17660;52.578;13.288;2023-04-01T05:05:48;11.10;99.90
30983;DHT22;17660;52.578;13.288;2023-04-01T05:08:15;11.10;99.90
30983;DHT22;17660;52.578;13.288;2023-04-01T05:10:42;11.10;99.90
30983;DHT22;17660;52.578;13.288;2023-04-01T05:13:09;11.10;99.90
30983;DHT22;17660;52.578;13.288;2023-04-01T05:15:36;11.10;99.90
30983;DHT22;17660;52.578;13.288;2023-04-01T05:18:03;11.00;99.90
30983;DHT22;17660;52.578;13.288;2023-04-01T05:20:30;11.10;99.90
30983;DHT22;17660;52.578;13.288;2023-04-01T05:22:57;11.10;99.90
30983;DHT22;17660;52.578;13.288;2023-04-01T05:25:24;11.10;99.90
30983;DHT22;17660;52.578;13.288;2023-04-01T05:27:50;11.10;99.90
30983;DHT22;17660;52.578;13.288;2023-04-01T05:30:17;11.10;99.90
30983;DHT22;17660;52.578;13.288;2023-04-01T05:32:44;11.10;99.90
30983;DHT22;17660;52.578;13.288;2023-04-01T05:35:11;11.20;99.90
30983;DHT22;17660;52.578;13.288;2023-04-01T05:37:38;11.20;99.90
30983;DHT22;17660;52.578;13.288;2023-04-01T05:40:04;11.20;99.90
30983;DHT22;17660;52.578;13.288;2023-04-01T05:42:31;11.30;99.90
30983;DHT22;17660;52.578;13.288;2023-04-01T05:44:58;11.20;99.90
30983;DHT22;17660;52.578;13.288;2023-04-01T05:47:25;11.30;99.90
30983;DHT22;17660;52.578;13.288;2023-04-01T05:49:51;11.30;99.90
30983;DHT22;17660;52.578;13.288;2023-04-01T05:52:18;11.40;99.90
30983;DHT22;17660;52.578;13.288;2023-04-01T05:54:45;11.40;99.90
30983;DHT22;17660;52.578;13.288;2023-04-01T05:57:11;11.30;99.90
30983;DHT22;17660;52.578;13.288;2023-04-01T05:59:38;11.40;99.90
30983;DHT22;17660;52.578;13.288;2023-04-01T06:02:05;11.40;99.90
30983;DHT22;17660;52.578;13.288;2023-04-01T06:04:32;11.40;99.90
30983;DHT22;17660;52.578;13.288;2023-04-01T06:07:01;11.30;99.90
30983;DHT22;17660;52.578;13.288;2023-04-01T06:09:28;11.40;99.90
30983;DHT22;17660;52.578;13.288;2023-04-01T06:12:05;11.40;99.90
30983;DHT22;17660;52.578;13.288;2023-04-01T06:14:42;11.40;99.90
30983;DHT22;17660;52.578;13.288;2023-04-01T06:20:03;11.40;99.90
30983;DHT22;17660;52.578;13.288;2023-04-01T06:35:41;11.40;99.90
30983;DHT22;17660;52.578;13.288;2023-04-01T06:40:56;11.40;99.90
30983;DHT22;17660;52.578;13.288;2023-04-01T06:43:44;11.40;99.90
30983;DHT22;17660;52.578;13.288;2023-04-01T06:49:05;11.40;99.90
30983;DHT22;17660;52.578;13.288;2023-04-01T06:51:39;11.40;99.90
30983;DHT22;17660;52.578;13.288;2023-04-01T06:54:10;11.40;99.90
30983;DHT22;17660;52.578;13.288;2023-04-01T06:56:40;11.40;99.90
30983;DHT22;17660;52.578;13.288;2023-04-01T06:59:19;11.40;99.90
30983;DHT22;17660;52.578;13.288;2023-04-01T07:02:10;11.50;99.90
30983;DHT22;17660;52.578;13.288;2023-04-01T07:04:39;11.50;99.90
30983;DHT22;17660;52.578;13.288;2023-04-01T07:07:21;11.50;99.90
30983;DHT22;17660;52.578;13.288;2023-04-01T07:09:51;11.60;99.90
30983;DHT22;17660;52.578;13.288;2023-04-01T07:12:21;11.60;99.90
30983;DHT22;17660;52.578;13.288;2023-04-01T07:14:49;11.60;99.90
30983;DHT22;17660;52.578;13.288;2023-04-01T07:20:05;11.70;99.90
30983;DHT22;17660;52.578;13.288;2023-04-01T07:22:33;11.60;99.90
30983;DHT22;17660;52.578;13.288;2023-04-01T07:25:21;11.60;99.90
30983;DHT22;17660;52.578;13.288;2023-04-01T07:27:48;11.60;99.90
30983;DHT22;17660;52.578;13.288;2023-04-01T07:30:20;11.70;99.90
30983;DHT22;17660;52.578;13.288;2023-04-01T07:51:08;11.90;99.90
30983;DHT22;17660;52.578;13.288;2023-04-01T07:56:10;12.20;99.90
30983;DHT22;17660;52.578;13.288;2023-04-01T08:01:27;12.30;99.90
30983;DHT22;17660;52.578;13.288;2023-04-01T08:06:26;12.30;99.90
30983;DHT22;17660;52.578;13.288;2023-04-01T08:11:25;12.20;99.90
30983;DHT22;17660;52.578;13.288;2023-04-01T08:21:34;11.40;99.90
30983;DHT22;17660;52.578;13.288;2023-04-01T08:24:07;11.70;99.90
30983;DHT22;17660;52.578;13.288;2023-04-01T08:26:37;12.00;99.90
30983;DHT22;17660;52.578;13.288;2023-04-01T08:29:16;12.30;99.90
30983;DHT22;17660;52.578;13.288;2023-04-01T08:34:21;11.80;99.90
30983;DHT22;17660;52.578;13.288;2023-04-01T08:36:51;11.70;99.90
30983;DHT22;17660;52.578;13.288;2023-04-01T08:39:31;11.50;99.90
30983;DHT22;17660;52.578;13.288;2023-04-01T08:47:24;11.20;99.90
30983;DHT22;17660;52.578;13.288;2023-04-01T08:52:37;11.20;99.90
30983;DHT22;17660;52.578;13.288;2023-04-01T09:39:37;11.50;99.90
30983;DHT22;17660;52.578;13.288;2023-04-01T09:44:35;11.80;99.90
30983;DHT22;17660;52.578;13.288;2023-04-01T09:52:26;11.70;99.90
30983;DHT22;17660;52.578;13.288;2023-04-01T10:00:36;11.80;99.90
30983;DHT22;17660;52.578;13.288;2023-04-01T10:13:28;11.80;99.90
30983;DHT22;17660;52.578;13.288;2023-04-01T10:16:03;11.70;99.90
30983;DHT22;17660;52.578;13.288;2023-04-01T10:24:04;11.30;99.90
30983;DHT22;17660;52.578;13.288;2023-04-01T10:39:33;10.80;99.90
30983;DHT22;17660;52.578;13.288;2023-04-01T10:47:24;10.80;99.90
30983;DHT22;17660;52.578;13.288;2023-04-01T10:52:36;10.80;99.90
30983;DHT22;17660;52.578;13.288;2023-04-01T11:10:57;10.80;99.90
30983;DHT22;17660;52.578;13.288;2023-04-01T11:35:35;10.70;99.90
30983;DHT22;17660;52.578;13.288;2023-04-01T11:38:07;10.70;99.90
30983;DHT22;17660;52.578;13.288;2023-04-01T11:58:36;10.20;99.90
30983;DHT22;17660;52.578;13.288;2023-04-01T12:09:15;10.10;99.90
30983;DHT22;17660;52.578;13.288;2023-04-01T12:12:03;10.10;99.90
30983;DHT22;17660;52.578;13.288;2023-04-01T12:30:36;10.00;99.90
30983;DHT22;17660;52.578;13.288;2023-04-01T12:35:55;9.90;99.90
30983;DHT22;17660;52.578;13.288;2023-04-01T12:43:29;9.80;99.90
30983;DHT22;17660;52.578;13.288;2023-04-01T13:01:48;10.00;99.90
30983;DHT22;17660;52.578;13.288;2023-04-01T13:20:41;9.70;99.90
30983;DHT22;17660;52.578;13.288;2023-04-01T13:23:09;9.50;99.90
30983;DHT22;17660;52.578;13.288;2023-04-01T13:25:39;9.40;99.90
30983;DHT22;17660;52.578;13.288;2023-04-01T13:28:22;9.50;99.90
30983;DHT22;17660;52.578;13.288;2023-04-01T13:30:55;9.40;99.90
30983;DHT22;17660;52.578;13.288;2023-04-01T13:33:43;9.50;99.90
30983;DHT22;17660;52.578;13.288;2023-04-01T13:44:09;9.30;99.90
30983;DHT22;17660;52.578;13.288;2023-04-01T13:51:52;9.00;99.90
30983;DHT22;17660;52.578;13.288;2023-04-01T14:07:47;9.00;99.90
30983;DHT22;17660;52.578;13.288;2023-04-01T14:18:16;9.30;99.90
30983;DHT22;17660;52.578;13.288;2023-04-01T14:21:19;9.30;99.90
30983;DHT22;17660;52.578;13.288;2023-04-01T14:47:07;9.00;99.90
30983;DHT22;17660;52.578;13.288;2023-04-01T14:52:08;8.90;99.90
30983;DHT22;17660;52.578;13.288;2023-04-01T14:54:37;8.90;99.90
30983;DHT22;17660;52.578;13.288;2023-04-01T14:59:41;10.50;99.90
30983;DHT22;17660;52.578;13.288;2023-04-01T15:10:39;8.70;99.90
30983;DHT22;17660;52.578;13.288;2023-04-01T15:15:40;8.80;99.90
30983;DHT22;17660;52.578;13.288;2023-04-01T15:26:11;8.70;99.90
30983;DHT22;17660;52.578;13.288;2023-04-01T15:28:39;8.60;99.90
30983;DHT22;17660;52.578;13.288;2023-04-01T15:33:39;8.50;99.90
30983;DHT22;17660;52.578;13.288;2023-04-01T15:38:59;8.50;99.90
30983;DHT22;17660;52.578;13.288;2023-04-01T15:44:02;8.50;99.90
30983;DHT22;17660;52.578;13.288;2023-04-01T15:46:46;8.60;99.90
30983;DHT22;17660;52.578;13.288;2023-04-01T15:56:53;8.60;99.90
30983;DHT22;17660;52.578;13.288;2023-04-01T16:20:59;8.00;99.90
30983;DHT22;17660;52.578;13.288;2023-04-01T16:28:40;7.90;99.90
30983;DHT22;17660;52.578;13.288;2023-04-01T16:43:43;7.80;99.90
30983;DHT22;17660;52.578;13.288;2023-04-01T16:51:32;7.60;99.90
30983;DHT22;17660;52.578;13.288;2023-04-01T16:54:04;7.60;99.90
30983;DHT22;17660;52.578;13.288;2023-04-01T16:56:38;7.60;99.90
30983;DHT22;17660;52.578;13.288;2023-04-01T16:59:16;7.50;99.90
30983;DHT22;17660;52.578;13.288;2023-04-01T17:04:27;7.50;99.90
30983;DHT22;17660;52.578;13.288;2023-04-01T17:07:05;7.50;99.90
30983;DHT22;17660;52.578;13.288;2023-04-01T17:10:21;7.60;99.90
30983;DHT22;17660;52.578;13.288;2023-04-01T17:18:30;7.20;99.90
30983;DHT22;17660;52.578;13.288;2023-04-01T17:24:09;7.10;99.90
30983;DHT22;17660;52.578;13.288;2023-04-01T17:32:07;7.10;99.90
30983;DHT22;17660;52.578;13.288;2023-04-01T17:34:39;7.10;99.90
30983;DHT22;17660;52.578;13.288;2023-04-01T17:37:14;7.00;99.90
30983;DHT22;17660;52.578;13.288;2023-04-01T17:42:55;6.90;99.90
30983;DHT22;17660;52.578;13.288;2023-04-01T17:47:43;6.90;99.90
30983;DHT22;17660;52.578;13.288;2023-04-01T17:50:22;6.90;99.90
30983;DHT22;17660;52.578;13.288;2023-04-01T18:00:26;6.60;99.90
30983;DHT22;17660;52.578;13.288;2023-04-01T18:08:13;6.60;99.90
30983;DHT22;17660;52.578;13.288;2023-04-01T18:23:54;6.50;99.90
30983;DHT22;17660;52.578;13.288;2023-04-01T18:26:31;6.50;99.90
30983;DHT22;17660;52.578;13.288;2023-04-01T18:29:04;6.50;99.90
30983;DHT22;17660;52.578;13.288;2023-04-01T18:31:38;6.40;99.90
30983;DHT22;17660;52.578;13.288;2023-04-01T18:36:53;6.30;99.90
30983;DHT22;17660;52.578;13.288;2023-04-01T18:39:22;6.40;99.90
30983;DHT22;17660;52.578;13.288;2023-04-01T18:46:57;6.80;99.90
30983;DHT22;17660;52.578;13.288;2023-04-01T18:49:33;6.70;99.90
30983;DHT22;17660;52.578;13.288;2023-04-01T18:52:03;6.50;99.90
30983;DHT22;17660;52.578;13.288;2023-04-01T18:54:42;6.60;99.90
30983;DHT22;17660;52.578;13.288;2023-04-01T18:57:12;6.50;99.90
30983;DHT22;17660;52.578;13.288;2023-04-01T18:59:40;6.50;99.90
30983;DHT22;17660;52.578;13.288;2023-04-01T19:04:51;6.40;99.90
30983;DHT22;17660;52.578;13.288;2023-04-01T19:07:27;6.40;99.90
30983;DHT22;17660;52.578;13.288;2023-04-01T19:09:59;6.30;99.90
30983;DHT22;17660;52.578;13.288;2023-04-01T19:15:07;6.30;99.90
30983;DHT22;17660;52.578;13.288;2023-04-01T19:17:40;6.20;99.90
30983;DHT22;17660;52.578;13.288;2023-04-01T19:22:48;6.30;99.90
30983;DHT22;17660;52.578;13.288;2023-04-01T19:30:39;6.00;99.90
30983;DHT22;17660;52.578;13.288;2023-04-01T19:38:29;5.90;99.90
30983;DHT22;17660;52.578;13.288;2023-04-01T19:41:09;5.90;99.90
30983;DHT22;17660;52.578;13.288;2023-04-01T19:46:14;5.80;99.90
30983;DHT22;17660;52.578;13.288;2023-04-01T19:48:44;5.80;99.90
30983;DHT22;17660;52.578;13.288;2023-04-01T19:56:19;5.70;99.90
30983;DHT22;17660;52.578;13.288;2023-04-01T19:58:54;5.70;99.90
30983;DHT22;17660;52.578;13.288;2023-04-01T20:01:38;5.70;99.90
30983;DHT22;17660;52.578;13.288;2023-04-01T20:04:13;5.70;99.90
30983;DHT22;17660;52.578;13.288;2023-04-01T20:12:25;5.80;99.90
30983;DHT22;17660;52.578;13.288;2023-04-01T20:14:57;5.70;99.90
30983;DHT22;17660;52.578;13.288;2023-04-01T20:20:15;5.80;99.90
30983;DHT22;17660;52.578;13.288;2023-04-01T20:27:50;5.60;99.90
30983;DHT22;17660;52.578;13.288;2023-04-01T20:30:21;5.50;99.90
30983;DHT22;17660;52.578;13.288;2023-04-01T20:35:44;5.60;99.90
30983;DHT22;17660;52.578;13.288;2023-04-01T20:38:24;5.60;99.90
30983;DHT22;17660;52.578;13.288;2023-04-01T20:43:57;5.60;99.90
30983;DHT22;17660;52.578;13.288;2023-04-01T20:51:47;5.50;99.90
30983;DHT22;17660;52.578;13.288;2023-04-01T20:54:30;5.50;99.90
30983;DHT22;17660;52.578;13.288;2023-04-01T20:57:21;5.50;99.90
30983;DHT22;17660;52.578;13.288;2023-04-01T20:59:57;5.50;99.90
30983;DHT22;17660;52.578;13.288;2023-04-01T21:12:28;5.30;99.90
30983;DHT22;17660;52.578;13.288;2023-04-01T21:15:11;5.20;99.90
30983;DHT22;17660;52.578;13.288;2023-04-01T21:17:46;5.20;99.90
30983;DHT22;17660;52.578;13.288;2023-04-01T21:30:32;5.10;99.90
30983;DHT22;17660;52.578;13.288;2023-04-01T21:33:13;5.10;99.90
30983;DHT22;17660;52.578;13.288;2023-04-01T21:43:31;5.30;99.90
30983;DHT22;17660;52.578;13.288;2023-04-01T21:59:39;5.10;99.90
30983;DHT22;17660;52.578;13.288;2023-04-01T22:07:19;5.00;99.90
30983;DHT22;17660;52.578;13.288;2023-04-01T22:09:56;5.00;99.90
30983;DHT22;17660;52.578;13.288;2023-04-01T22:17:45;5.10;99.90
30983;DHT22;17660;52.578;13.288;2023-04-01T22:25:39;5.10;99.90
30983;DHT22;17660;52.578;13.288;2023-04-01T22:28:09;5.00;99.90
30983;DHT22;17660;52.578;13.288;2023-04-01T22:33:12;5.10;99.90
30983;DHT22;17660;52.578;13.288;2023-04-01T22:35:46;4.90;99.90
30983;DHT22;17660;52.578;13.288;2023-04-01T22:43:39;5.10;99.90
30983;DHT22;17660;52.578;13.288;2023-04-01T22:49:00;5.10;99.90
30983;DHT22;17660;52.578;13.288;2023-04-01T22:51:38;5.10;99.90
30983;DHT22;17660;52.578;13.288;2023-04-01T22:56:39;5.20;99.90
30983;DHT22;17660;52.578;13.288;2023-04-01T22:59:19;5.20;99.90
30983;DHT22;17660;52.578;13.288;2023-04-01T23:02:03;5.10;99.90
30983;DHT22;17660;52.578;13.288;2023-04-01T23:04:32;5.00;99.90
30983;DHT22;17660;52.578;13.288;2023-04-01T23:07:02;5.10;99.90
30983;DHT22;17660;52.578;13.288;2023-04-01T23:09:31;5.10;99.90
30983;DHT22;17660;52.578;13.288;2023-04-01T23:14:34;5.00;99.90
30983;DHT22;17660;52.578;13.288;2023-04-01T23:17:07;5.00;99.90
30983;DHT22;17660;52.578;13.288;2023-04-01T23:22:26;4.90;99.90
30983;DHT22;17660;52.578;13.288;2023-04-01T23:24:50;4.90;99.90
30983;DHT22;17660;52.578;13.288;2023-04-01T23:27:39;4.90;99.90
30983;DHT22;17660;52.578;13.288;2023-04-01T23:32:53;4.90;99.90
30983;DHT22;17660;52.578;13.288;2023-04-01T23:35:20;4.90;99.90
30983;DHT22;17660;52.578;13.288;2023-04-01T23:37:46;4.80;99.90
30983;DHT22;17660;52.578;13.288;2023-04-01T23:40:13;4.80;99.90
30983;DHT22;17660;52.578;13.288;2023-04-01T23:42:40;4.80;99.90
30983;DHT22;17660;52.578;13.288;2023-04-01T23:45:14;4.70;99.90
30983;DHT22;17660;52.578;13.288;2023-04-01T23:47:44;4.70;99.90
30983;DHT22;17660;52.578;13.288;2023-04-01T23:50:13;4.80;99.90
30983;DHT22;17660;52.578;13.288;2023-04-01T23:52:46;4.70;99.90
30983;DHT22;17660;52.578;13.288;2023-04-01T23:55:14;4.70;99.90
30983;DHT22;17660;52.578;13.288;2023-04-01T23:58:00;4.70;99.90
